Time;durP1;ratioP1;P1;durP2;ratioP2;P2;SDS_P1;SDS_P2;PMS_P1;PMS_P2;Temp;Humidity;BMP_temperature;BMP_pressure;BME280_temperature;BME280_humidity;BME280_pressure;Samples;Min_cycle;Max_cycle;Signal;HPM_P1;HPM_P2
2022/10/05 00:01:30;;;;;;;4.85;2.28;;;;;;;16.01;94.74;101635.50;10377407;28;20062;-67
2022/10/05 00:06:30;;;;;;;1.95;1.77;;;;;;;15.97;94.20;101630.69;10377509;28;20029;-67
2022/10/05 00:11:31;;;;;;;3.95;2.85;;;;;;;15.94;93.19;101623.75;10378515;28;20042;-68
2022/10/05 00:16:31;;;;;;;1.23;1.13;;;;;;;15.97;93.66;101631.53;10379143;28;20040;-67
2022/10/05 00:21:31;;;;;;;1.33;1.13;;;;;;;15.94;93.58;101623.75;10378204;28;20391;-67
2022/10/05 00:26:32;;;;;;;3.33;1.70;;;;;;;15.89;91.07;101618.13;10376821;28;20038;-68
2022/10/05 00:31:33;;;;;;;1.80;1.70;;;;;;;15.91;90.14;101588.69;10383505;28;20084;-69
2022/10/05 00:36:34;;;;;;;1.67;1.42;;;;;;;15.91;90.10;101606.97;10361035;28;20033;-67
2022/10/05 00:41:34;;;;;;;1.10;1.10;;;;;;;15.96;89.37;101613.47;10375496;28;20037;-67
2022/10/05 00:46:45;;;;;;;1.70;1.23;;;;;;;15.95;89.64;101587.22;10377360;28;20057;-67
2022/10/05 00:52:07;;;;;;;3.55;2.00;;;;;;;15.96;89.32;101577.97;10381914;28;20450;-68
2022/10/05 00:57:21;;;;;;;2.45;1.85;;;;;;;15.96;89.74;101571.66;10361037;28;20034;-67
2022/10/05 01:02:24;;;;;;;2.38;1.10;;;;;;;15.96;88.69;101572.50;10357399;28;20116;-68
2022/10/05 01:07:28;;;;;;;1.48;1.38;;;;;;;15.93;88.52;101559.28;10377925;28;20089;-68
2022/10/05 01:12:45;;;;;;;6.05;1.63;;;;;;;15.95;89.24;101538.06;10394200;28;20041;-67
2022/10/05 01:17:50;;;;;;;1.27;1.17;;;;;;;15.95;89.11;101542.66;10397065;28;20038;-67
2022/10/05 01:23:20;;;;;;;1.30;1.20;;;;;;;15.95;89.39;101542.66;10399700;28;20239;-67
2022/10/05 01:29:14;;;;;;;2.38;1.55;;;;;;;15.92;89.75;101540.34;10383067;28;20049;-67
2022/10/05 01:34:17;;;;;;;5.05;2.67;;;;;;;15.93;90.47;101548.34;10313596;28;20046;-66
2022/10/05 01:39:51;;;;;;;5.13;1.40;;;;;;;15.91;91.29;101542.25;10387467;28;20038;-67
2022/10/05 01:45:07;;;;;;;2.10;1.95;;;;;;;15.83;91.71;101511.63;10394070;28;20038;-68
2022/10/05 01:50:40;;;;;;;3.63;2.22;;;;;;;15.79;92.76;101503.00;10380331;28;20454;-68
2022/10/05 01:55:58;;;;;;;2.67;2.47;;;;;;;15.76;93.51;101501.59;10375053;28;20370;-67
2022/10/05 02:01:06;;;;;;;3.97;2.97;;;;;;;15.73;93.30;101490.22;10360283;28;20053;-68
2022/10/05 02:06:21;;;;;;;4.60;2.33;;;;;;;15.69;93.88;101475.34;10364913;28;20113;-67
2022/10/05 02:11:21;;;;;;;3.88;2.78;;;;;;;15.58;94.03;101471.38;10373100;28;20057;-68
2022/10/05 02:16:33;;;;;;;3.78;2.13;;;;;;;15.51;94.56;101473.31;10375054;28;20090;-67
2022/10/05 02:21:33;;;;;;;3.63;2.50;;;;;;;15.56;94.63;101477.03;10374318;28;20038;-67
2022/10/05 02:26:34;;;;;;;2.92;2.60;;;;;;;15.61;93.89;101470.13;10356154;28;20116;-67
2022/10/05 02:31:46;;;;;;;3.47;2.63;;;;;;;15.57;93.94;101461.50;10372368;28;20033;-67
2022/10/05 02:36:50;;;;;;;2.70;2.42;;;;;;;15.56;94.59;101457.94;10373330;28;20105;-67
2022/10/05 02:42:24;;;;;;;2.67;2.35;;;;;;;15.50;94.91;101463.44;10375364;28;20121;-68
2022/10/05 02:47:32;;;;;;;3.22;2.25;;;;;;;15.54;96.01;101464.69;10378582;28;20033;-67
2022/10/05 02:52:44;;;;;;;3.50;3.20;;;;;;;15.63;95.79;101470.72;10377251;28;20124;-70
2022/10/05 02:57:52;;;;;;;4.78;3.13;;;;;;;15.63;95.79;101468.81;10375470;28;20037;-68
2022/10/05 03:03:15;;;;;;;3.00;2.78;;;;;;;15.61;96.05;101464.66;10387384;28;20530;-68
2022/10/05 03:08:38;;;;;;;2.95;2.75;;;;;;;15.57;95.76;101458.75;10380582;28;20030;-68
2022/10/05 03:13:49;;;;;;;2.33;2.17;;;;;;;15.62;95.66;101461.69;10382801;28;20422;-67
2022/10/05 03:18:55;;;;;;;3.85;3.35;;;;;;;15.55;94.84;101459.00;10382108;28;20077;-67
2022/10/05 03:24:04;;;;;;;6.82;2.50;;;;;;;15.56;95.21;101451.63;10398337;28;20057;-67
2022/10/05 03:29:10;;;;;;;4.10;2.85;;;;;;;15.58;95.16;101455.00;10394987;28;20049;-67
2022/10/05 03:34:45;;;;;;;6.20;3.70;;;;;;;15.61;95.19;101437.34;10396957;28;20026;-68
2022/10/05 03:39:54;;;;;;;5.00;3.75;;;;;;;15.57;95.14;101437.78;10379535;28;20037;-69
2022/10/05 03:45:25;;;;;;;7.03;3.45;;;;;;;15.55;94.61;101439.88;10369823;28;20026;-67
2022/10/05 03:50:41;;;;;;;4.00;3.60;;;;;;;15.63;94.93;101441.53;10383324;28;20108;-67
2022/10/05 03:55:48;;;;;;;4.10;3.55;;;;;;;15.62;94.83;101430.84;10378959;28;20196;-68
2022/10/05 04:00:52;;;;;;;4.07;3.67;;;;;;;15.58;95.06;101422.25;10378683;28;20093;-68
2022/10/05 04:06:02;;;;;;;4.97;3.15;;;;;;;15.50;94.50;101436.13;10362693;28;20367;-67
2022/10/05 04:11:05;;;;;;;3.47;3.22;;;;;;;15.54;94.68;101434.66;10362486;28;20034;-67
2022/10/05 04:16:24;;;;;;;3.05;2.75;;;;;;;15.52;95.10;101432.13;10361664;28;20065;-68
2022/10/05 04:21:33;;;;;;;21.58;3.55;;;;;;;15.49;94.96;101424.38;10378705;28;20382;-67
2022/10/05 04:26:37;;;;;;;4.40;2.63;;;;;;;15.44;95.13;101410.53;10361666;28;20038;-68
2022/10/05 04:31:47;;;;;;;5.65;2.78;;;;;;;15.44;94.87;101410.53;10362533;28;20036;-67
2022/10/05 04:36:57;;;;;;;2.80;2.58;;;;;;;15.39;95.08;101402.19;10381206;28;20092;-68
2022/10/05 04:42:16;;;;;;;3.08;2.78;;;;;;;15.34;94.50;101386.44;10326917;28;20053;-66
2022/10/05 04:47:31;;;;;;;1.83;1.70;;;;;;;15.37;95.05;101390.63;10378745;28;20105;-69
2022/10/05 04:53:10;;;;;;;5.28;2.97;;;;;;;15.34;95.32;101382.88;10378747;28;20414;-70
2022/10/05 04:58:26;;;;;;;2.28;2.08;;;;;;;15.22;96.02;101384.59;10376712;28;20049;-70
2022/10/05 05:03:36;;;;;;;11.50;2.78;;;;;;;15.16;96.56;101382.78;10375929;28;20037;-68
2022/10/05 05:08:56;;;;;;;2.72;2.38;;;;;;;15.10;96.27;101377.13;10375957;28;20060;-66
2022/10/05 05:14:03;;;;;;;2.10;1.85;;;;;;;15.09;96.64;101364.53;10376055;28;20065;-68
2022/10/05 05:19:14;;;;;;;3.08;2.42;;;;;;;15.16;96.66;101360.94;10376077;28;20113;-68
2022/10/05 05:24:20;;;;;;;15.30;2.78;;;;;;;15.15;95.43;101357.34;10375164;28;20042;-67
2022/10/05 05:29:59;;;;;;;4.93;1.65;;;;;;;15.25;95.42;101371.41;10375267;28;20114;-67
2022/10/05 05:35:26;;;;;;;1.73;1.63;;;;;;;15.33;95.45;101364.84;10308922;28;20042;-67
2022/10/05 05:40:29;;;;;;;1.40;1.30;;;;;;;15.34;95.05;101364.59;10374889;28;20132;-68
2022/10/05 05:45:42;;;;;;;2.88;1.02;;;;;;;15.35;94.99;101360.00;10372969;28;20053;-68
2022/10/05 05:51:08;;;;;;;1.27;1.17;;;;;;;15.32;94.49;101357.72;10373719;28;20092;-68
2022/10/05 05:56:13;;;;;;;2.75;2.17;;;;;;;15.37;94.61;101360.63;10369480;28;20044;-67
2022/10/05 06:01:25;;;;;;;5.13;2.42;;;;;;;15.43;94.82;101359.75;10373007;28;20116;-67
2022/10/05 06:06:29;;;;;;;5.07;1.98;;;;;;;15.43;94.64;101348.81;10358415;28;20036;-68
2022/10/05 06:11:40;;;;;;;2.60;2.17;;;;;;;15.47;94.44;101363.69;10356044;28;20512;-67
2022/10/05 06:16:44;;;;;;;2.58;2.38;;;;;;;15.51;94.58;101358.66;10357688;28;20038;-67
2022/10/05 06:22:04;;;;;;;3.58;2.50;;;;;;;15.57;95.02;101371.41;10356430;28;20421;-67
2022/10/05 06:27:24;;;;;;;4.65;2.03;;;;;;;15.58;95.42;101370.38;10372542;28;20516;-68
2022/10/05 06:32:32;;;;;;;2.15;1.98;;;;;;;15.57;95.38;101361.34;10361873;28;20030;-67
2022/10/05 06:37:51;;;;;;;2.38;1.95;;;;;;;15.58;95.23;101373.09;10381378;28;20037;-67
2022/10/05 06:43:14;;;;;;;3.15;2.85;;;;;;;15.61;95.47;101371.84;10381126;28;20040;-67
2022/10/05 06:48:32;;;;;;;2.90;2.70;;;;;;;15.62;95.02;101374.34;10382110;28;20034;-67
2022/10/05 06:53:37;;;;;;;2.45;2.25;;;;;;;15.67;95.00;101377.28;10367345;28;20051;-67
2022/10/05 06:59:13;;;;;;;2.72;2.50;;;;;;;15.70;95.31;101363.19;10363775;28;20485;-66
2022/10/05 07:04:28;;;;;;;4.53;2.30;;;;;;;15.73;95.03;101375.53;10365445;28;20112;-69
2022/10/05 07:10:00;;;;;;;4.38;2.08;;;;;;;15.74;94.95;101379.97;10381113;28;20033;-67
2022/10/05 07:15:06;;;;;;;3.38;2.88;;;;;;;15.69;94.96;101361.50;10380439;28;20030;-67
2022/10/05 07:20:28;;;;;;;2.40;2.13;;;;;;;15.77;94.82;101358.53;10362713;28;20033;-68
2022/10/05 07:25:39;;;;;;;2.13;1.95;;;;;;;15.86;94.87;101352.78;10380060;28;20510;-68
2022/10/05 07:30:47;;;;;;;2.70;2.35;;;;;;;15.93;94.87;101359.88;10362216;28;20030;-68
2022/10/05 07:42:17;;;;;;;5.28;3.30;;;;;;;15.95;94.45;101363.22;10365556;28;20033;-67
2022/10/05 07:47:32;;;;;;;2.65;2.45;;;;;;;15.89;94.03;101358.66;10343177;28;20052;-67
2022/10/05 07:52:37;;;;;;;4.28;2.10;;;;;;;15.96;94.47;101353.13;10378954;28;20064;-68
2022/10/05 07:57:47;;;;;;;5.18;2.28;;;;;;;15.98;94.10;101348.28;10361765;28;20470;-68
2022/10/05 08:02:57;;;;;;;2.88;2.47;;;;;;;16.02;93.74;101352.25;10379724;28;20112;-67
2022/10/05 08:08:09;;;;;;;7.15;3.33;;;;;;;16.02;93.45;101347.63;10377432;28;20040;-67
2022/10/05 08:13:18;;;;;;;4.65;3.13;;;;;;;16.12;93.75;101338.09;10377929;28;20378;-67
2022/10/05 08:18:51;;;;;;;2.60;2.35;;;;;;;16.06;92.72;101330.78;10360680;28;20434;-67
2022/10/05 08:24:09;;;;;;;2.50;1.60;;;;;;;16.14;93.23;101341.41;10363968;28;20073;-67
2022/10/05 08:29:19;;;;;;;3.58;2.63;;;;;;;16.20;92.63;101341.34;10378035;28;20038;-67
2022/10/05 08:34:44;;;;;;;4.32;1.85;;;;;;;16.32;92.22;101319.59;10377210;28;20136;-69
2022/10/05 08:39:57;;;;;;;4.10;1.58;;;;;;;16.55;91.74;101332.59;10361774;28;20413;-67
2022/10/05 08:45:34;;;;;;;8.95;3.00;;;;;;;16.81;92.22;101315.09;10378269;28;20057;-67
2022/10/05 08:50:44;;;;;;;;;;;;;;;16.86;89.25;101309.78;10377573;28;20394;-67
2022/10/05 08:56:21;;;;;;;2.92;2.45;;;;;;;17.00;88.95;101309.59;10377173;28;19913;-67
2022/10/05 09:01:21;;;;;;;4.45;1.88;;;;;;;17.12;87.53;101302.28;10376186;28;20050;-68
2022/10/05 09:07:00;;;;;;;2.25;1.98;;;;;;;17.10;87.33;101296.22;10376082;28;20042;-69
2022/10/05 09:12:28;;;;;;;1.95;1.85;;;;;;;17.18;86.60;101301.38;10353373;28;20049;-68
2022/10/05 09:18:13;;;;;;;4.75;2.03;;;;;;;17.16;85.36;101298.03;10375136;28;20034;-67
2022/10/05 09:23:25;;;;;;;2.35;1.83;;;;;;;17.24;86.28;101300.44;10339208;28;20125;-68
2022/10/05 09:28:44;;;;;;;1.48;1.38;;;;;;;17.23;84.97;101293.31;10376267;28;20042;-67
2022/10/05 09:34:09;;;;;;;1.95;1.40;;;;;;;17.15;83.54;101299.09;10375509;28;20030;-68
2022/10/05 09:39:38;;;;;;;5.38;1.92;;;;;;;17.01;82.67;101283.94;10375162;28;20033;-67
2022/10/05 09:44:57;;;;;;;1.77;1.67;;;;;;;16.91;84.99;101304.47;10357739;28;20419;-68
2022/10/05 09:50:25;;;;;;;1.67;1.58;;;;;;;16.97;83.94;101302.69;10376168;28;20049;-67
2022/10/05 09:56:13;;;;;;;1.98;1.88;;;;;;;16.86;83.77;101298.84;10376051;28;20044;-67
2022/10/05 10:01:13;;;;;;;2.50;1.83;;;;;;;16.78;84.23;101301.03;10338810;28;20080;-67
2022/10/05 10:06:37;;;;;;;1.70;1.57;;;;;;;16.77;84.71;101281.06;10374073;28;20044;-67
2022/10/05 10:11:49;;;;;;;1.55;1.45;;;;;;;16.87;85.49;101289.56;10374759;28;20291;-67
2022/10/05 10:17:07;;;;;;;4.38;1.58;;;;;;;16.99;85.41;101286.06;10357456;28;20504;-68
2022/10/05 10:22:32;;;;;;;2.65;2.42;;;;;;;16.99;85.29;101291.53;10357193;28;20030;-68
2022/10/05 10:27:38;;;;;;;1.27;1.27;;;;;;;16.89;85.09;101281.97;10373965;28;20025;-68
2022/10/05 10:33:04;;;;;;;1.87;1.77;;;;;;;16.88;86.20;101284.91;10373041;28;20466;-68
2022/10/05 10:38:27;;;;;;;3.03;2.33;;;;;;;16.79;86.28;101272.66;10358529;28;20030;-67
2022/10/05 10:43:38;;;;;;;2.03;1.92;;;;;;;16.93;87.15;101274.13;10357863;28;20115;-67
2022/10/05 10:49:15;;;;;;;2.35;2.25;;;;;;;16.98;86.64;101267.97;10373071;28;20512;-68
2022/10/05 10:54:27;;;;;;;3.53;2.83;;;;;;;17.00;87.19;101276.78;10373374;28;20088;-67
2022/10/05 10:59:38;;;;;;;2.42;2.33;;;;;;;17.00;86.69;101261.19;10354985;28;20058;-67
2022/10/05 11:05:02;;;;;;;4.43;2.60;;;;;;;17.05;86.64;101275.03;10372381;28;20465;-67
2022/10/05 11:10:27;;;;;;;3.88;2.45;;;;;;;17.13;86.83;101268.38;10372154;28;20044;-67
2022/10/05 11:15:46;;;;;;;2.47;2.13;;;;;;;17.06;87.37;101286.81;10372404;28;20074;-68
2022/10/05 11:21:03;;;;;;;13.95;3.28;;;;;;;17.22;87.28;101275.19;10380410;28;20070;-68
2022/10/05 11:26:18;;;;;;;2.40;2.20;;;;;;;17.15;86.56;101272.56;10381445;28;20034;-68
2022/10/05 11:31:53;;;;;;;11.45;4.13;;;;;;;17.31;86.85;101259.28;10379695;28;20450;-67
2022/10/05 11:37:12;;;;;;;4.05;3.17;;;;;;;17.48;85.84;101243.03;10367620;28;20038;-67
2022/10/05 11:42:32;;;;;;;4.38;2.55;;;;;;;17.43;85.42;101247.31;10381693;28;20042;-68
2022/10/05 11:47:49;;;;;;;4.10;2.80;;;;;;;17.55;84.70;101235.53;10381119;28;20069;-67
2022/10/05 11:52:55;;;;;;;3.10;2.90;;;;;;;17.68;84.06;101238.06;10365615;28;20054;-68
2022/10/05 11:57:57;;;;;;;4.85;3.63;;;;;;;17.62;83.73;101233.53;10382338;28;20049;-67
2022/10/05 12:03:35;;;;;;;3.38;3.05;;;;;;;17.69;84.44;101220.56;10366187;28;20061;-67
2022/10/05 12:08:41;;;;;;;2.70;2.50;;;;;;;17.84;83.13;101225.59;10382831;28;20045;-67
2022/10/05 12:13:46;;;;;;;2.27;2.17;;;;;;;17.80;82.63;101205.22;10381848;28;20040;-67
2022/10/05 12:18:49;;;;;;;2.10;1.83;;;;;;;17.84;81.45;101207.25;10380750;28;20025;-67
2022/10/05 12:24:14;;;;;;;15.43;2.70;;;;;;;17.87;81.06;101203.22;10381112;28;20033;-68
2022/10/05 12:29:42;;;;;;;1.67;1.58;;;;;;;17.85;81.19;101208.91;10381905;28;20033;-68
2022/10/05 12:34:50;;;;;;;2.85;2.60;;;;;;;17.91;82.63;101212.63;10383859;28;20026;-68
2022/10/05 12:40:01;;;;;;;3.08;2.35;;;;;;;17.89;81.27;101204.63;10383734;28;20029;-67
2022/10/05 12:45:17;;;;;;;2.47;2.33;;;;;;;17.82;82.11;101206.66;10367168;28;20424;-67
2022/10/05 12:50:35;;;;;;;2.63;2.30;;;;;;;17.75;82.14;101203.19;10382724;28;20068;-68
2022/10/05 12:55:45;;;;;;;2.33;2.22;;;;;;;17.72;82.91;101195.44;10384579;28;20033;-68
2022/10/05 13:00:56;;;;;;;4.07;3.78;;;;;;;17.74;82.97;101207.00;10387543;28;20060;-68
2022/10/05 13:06:09;;;;;;;2.38;2.17;;;;;;;17.82;83.50;101208.56;10385343;28;20030;-67
2022/10/05 13:11:29;;;;;;;3.72;2.45;;;;;;;17.89;83.45;101210.09;10379129;28;20044;-68
2022/10/05 13:16:50;;;;;;;3.38;3.05;;;;;;;17.99;83.02;101195.78;10365429;28;20034;-67
2022/10/05 13:22:29;;;;;;;4.63;2.60;;;;;;;18.42;81.13;101186.31;10358823;28;20065;-68
2022/10/05 13:27:34;;;;;;;6.18;3.25;;;;;;;18.51;80.15;101181.28;10354422;28;20103;-67
2022/10/05 13:32:35;;;;;;;4.72;1.98;;;;;;;18.57;80.71;101188.56;10342185;28;20568;-67
2022/10/05 13:37:45;;;;;;;8.65;2.42;;;;;;;18.54;79.93;101175.31;10341330;28;20038;-67
2022/10/05 13:42:49;;;;;;;2.55;2.28;;;;;;;18.48;80.08;101173.56;10374437;28;20359;-67
2022/10/05 13:48:23;;;;;;;3.67;2.38;;;;;;;18.56;80.33;101189.59;10373737;28;20358;-68
2022/10/05 13:53:35;;;;;;;2.25;2.08;;;;;;;18.53;78.53;101193.66;10374651;28;20030;-68
2022/10/05 13:58:59;;;;;;;4.10;2.13;;;;;;;18.43;79.44;101204.44;10357352;28;20095;-68
2022/10/05 14:04:28;;;;;;;4.28;2.45;;;;;;;18.09;77.69;101203.41;10358634;28;20045;-69
2022/10/05 14:09:32;;;;;;;2.92;2.17;;;;;;;18.07;78.75;101205.56;10358274;28;20061;-68
2022/10/05 14:14:45;;;;;;;2.72;2.10;;;;;;;18.00;78.42;101191.19;10373093;28;20030;-67
2022/10/05 14:19:47;;;;;;;2.60;1.88;;;;;;;18.06;80.20;101187.44;10374002;28;20117;-67
2022/10/05 14:24:52;;;;;;;2.50;1.98;;;;;;;18.37;79.72;101188.94;10373824;28;20125;-67
2022/10/05 14:29:58;;;;;;;3.15;2.55;;;;;;;18.37;78.13;101180.72;10374645;28;20443;-69
2022/10/05 14:35:11;;;;;;;1.30;1.30;;;;;;;18.22;78.11;101191.34;10356844;28;20113;-67
2022/10/05 14:40:24;;;;;;;5.32;2.08;;;;;;;18.20;79.05;101185.31;10373161;28;20536;-67
2022/10/05 14:45:28;;;;;;;4.75;2.22;;;;;;;18.16;79.11;101193.19;10373012;28;20036;-67
2022/10/05 14:50:29;;;;;;;7.78;2.42;;;;;;;18.20;79.18;101182.56;10371752;28;20045;-68
2022/10/05 14:56:07;;;;;;;2.65;2.25;;;;;;;18.10;79.93;101191.41;10364838;28;20520;-67
2022/10/05 15:01:30;;;;;;;2.70;2.50;;;;;;;18.03;80.65;101183.31;10381996;28;20057;-68
2022/10/05 15:06:43;;;;;;;2.10;1.98;;;;;;;18.02;80.53;101192.56;10382519;28;20050;-67
2022/10/05 15:11:50;;;;;;;2.55;2.35;;;;;;;17.93;80.89;101193.19;10363848;28;20052;-68
2022/10/05 15:16:52;;;;;;;3.13;2.75;;;;;;;17.97;81.72;101188.91;10379288;28;20474;-67
2022/10/05 15:22:12;;;;;;;4.10;2.70;;;;;;;17.94;81.65;101192.13;10363771;28;20033;-68
2022/10/05 15:27:55;;;;;;;3.75;2.40;;;;;;;17.82;82.28;101192.94;10379288;28;20036;-68
2022/10/05 15:33:03;;;;;;;3.85;2.78;;;;;;;17.71;82.04;101202.00;10363629;28;20076;-67
2022/10/05 15:38:19;;;;;;;3.95;2.60;;;;;;;17.67;83.81;101207.09;10381250;28;20037;-68
2022/10/05 15:43:21;;;;;;;5.73;2.67;;;;;;;17.59;83.95;101212.09;10378226;28;20641;-68
2022/10/05 15:48:34;;;;;;;2.85;2.40;;;;;;;17.54;84.35;101212.78;10379737;28;20034;-68
2022/10/05 15:53:42;;;;;;;3.25;2.75;;;;;;;17.50;85.26;101211.59;10363216;28;20109;-67
2022/10/05 15:58:54;;;;;;;7.90;2.22;;;;;;;17.44;85.19;101207.06;10362030;28;20064;-67
2022/10/05 16:04:23;;;;;;;5.07;3.08;;;;;;;17.40;85.69;101214.09;10377006;28;20037;-67
2022/10/05 16:09:27;;;;;;;2.08;1.95;;;;;;;17.42;86.24;101220.16;10377680;28;20030;-67
2022/10/05 16:14:27;;;;;;;2.83;2.28;;;;;;;17.42;86.32;101217.41;10378196;28;20037;-67
2022/10/05 16:19:57;;;;;;;3.80;2.35;;;;;;;17.40;86.41;101223.13;10378506;28;20101;-67
2022/10/05 16:25:01;;;;;;;4.20;2.13;;;;;;;17.36;86.62;101224.69;10360006;28;20566;-67
2022/10/05 16:30:25;;;;;;;4.38;2.30;;;;;;;17.38;86.83;101218.94;10376698;28;20061;-67
2022/10/05 16:35:43;;;;;;;3.90;2.92;;;;;;;17.37;87.38;101222.78;10362570;28;20420;-67
2022/10/05 16:41:00;;;;;;;3.45;2.53;;;;;;;17.32;87.64;101231.66;10377690;28;20431;-67
2022/10/05 16:46:58;;;;;;;3.50;2.30;;;;;;;17.29;87.89;101226.66;10376145;28;20378;-67
2022/10/05 16:52:00;;;;;;;3.60;2.58;;;;;;;17.27;88.31;101223.34;10292734;28;20047;-68
2022/10/05 16:57:11;;;;;;;5.45;3.40;;;;;;;17.32;88.67;101239.88;10356001;28;20458;-67
2022/10/05 17:02:41;;;;;;;4.85;2.70;;;;;;;17.36;88.72;101238.38;10375343;28;20129;-67
2022/10/05 17:08:20;;;;;;;4.13;3.05;;;;;;;17.32;88.72;101242.63;10359484;28;20145;-67
2022/10/05 17:13:57;;;;;;;5.47;2.55;;;;;;;17.24;89.18;101256.66;10375561;28;20049;-67
2022/10/05 17:19:33;;;;;;;7.82;2.70;;;;;;;17.11;90.69;101254.13;10375331;28;20382;-68
2022/10/05 17:24:59;;;;;;;3.88;3.05;;;;;;;16.94;91.66;101273.91;10375050;28;20087;-68
2022/10/05 17:30:21;;;;;;;2.78;2.58;;;;;;;16.62;95.46;101272.38;10374707;28;20132;-67
2022/10/05 17:35:41;;;;;;;2.65;2.45;;;;;;;16.68;95.86;101263.25;10375404;28;20046;-69
2022/10/05 17:41:16;;;;;;;2.42;2.22;;;;;;;16.85;94.83;101286.22;10375226;28;20041;-69
2022/10/05 17:46:17;;;;;;;3.17;2.75;;;;;;;17.03;93.83;101284.53;10376441;28;20044;-67
2022/10/05 17:56:46;;;;;;;3.17;2.92;;;;;;;17.29;93.33;101310.69;10374422;28;20041;-69
2022/10/05 18:02:29;;;;;;;4.57;2.80;;;;;;;17.19;94.28;101313.97;10374340;28;20057;-67
2022/10/05 18:07:33;;;;;;;5.57;3.17;;;;;;;17.02;96.66;101349.34;10369942;28;20077;-68
2022/10/05 18:12:39;;;;;;;8.02;3.85;;;;;;;16.90;98.15;101327.41;10342399;28;20091;-67
2022/10/05 18:17:46;;;;;;;4.20;3.17;;;;;;;16.81;100.00;101361.59;10357029;28;20477;-68
2022/10/05 18:22:49;;;;;;;7.57;2.47;;;;;;;16.33;100.00;101378.66;10373091;28;20025;-71
2022/10/05 18:28:01;;;;;;;10.35;3.58;;;;;;;16.01;100.00;101378.72;10392974;28;20045;-74
2022/10/05 18:33:26;;;;;;;4.05;2.75;;;;;;;15.62;100.00;101400.81;10381911;28;20033;-73
2022/10/05 18:38:57;;;;;;;3.47;2.25;;;;;;;15.44;100.00;101418.72;10381530;28;20053;-73
2022/10/05 18:44:11;;;;;;;16.77;3.70;;;;;;;15.46;100.00;101454.84;10383448;28;20374;-71
2022/10/05 18:49:25;;;;;;;17.63;4.10;;;;;;;15.35;100.00;101467.28;10381456;28;20030;-72
2022/10/05 18:54:41;;;;;;;9.18;2.22;;;;;;;15.10;100.00;101478.03;10363434;28;20113;-73
2022/10/05 18:59:50;;;;;;;12.15;4.63;;;;;;;14.96;100.00;101491.91;10381881;28;20123;-72
2022/10/05 19:05:14;;;;;;;6.28;2.33;;;;;;;14.89;100.00;101511.84;10382547;28;20045;-73
2022/10/05 19:10:17;;;;;;;5.10;2.47;;;;;;;14.78;100.00;101503.47;10380212;28;20033;-71
2022/10/05 19:15:21;;;;;;;5.78;2.50;;;;;;;14.71;100.00;101510.81;10379827;28;20033;-72
2022/10/05 19:20:31;;;;;;;8.55;3.35;;;;;;;14.63;100.00;101536.41;10364177;28;20033;-71
2022/10/05 19:25:47;;;;;;;5.55;2.97;;;;;;;14.61;100.00;101549.38;10379314;28;20595;-72
2022/10/05 19:31:16;;;;;;;10.38;2.85;;;;;;;14.66;100.00;101568.69;10381715;28;20025;-72
2022/10/05 19:36:39;;;;;;;12.88;3.30;;;;;;;14.67;100.00;101583.16;10374371;28;20077;-73
2022/10/05 19:42:03;;;;;;;14.63;3.50;;;;;;;14.65;100.00;101586.94;10379257;28;20350;-71
2022/10/05 19:47:22;;;;;;;15.38;3.17;;;;;;;14.63;100.00;101594.47;10384944;28;20113;-70
2022/10/05 19:52:40;;;;;;;3.20;2.55;;;;;;;14.63;100.00;101607.25;10385182;28;20054;-69
2022/10/05 19:57:47;;;;;;;6.68;2.03;;;;;;;14.62;100.00;101619.22;10382338;28;20034;-69
2022/10/05 20:02:49;;;;;;;5.63;1.92;;;;;;;14.43;100.00;101640.72;10377565;28;20046;-69
2022/10/05 20:07:50;;;;;;;8.18;1.65;;;;;;;14.19;100.00;101652.16;10379059;28;20069;-68
2022/10/05 20:12:53;;;;;;;2.28;1.00;;;;;;;14.01;100.00;101671.78;10378277;28;20065;-71
2022/10/05 20:23:22;;;;;;;7.22;1.65;;;;;;;13.72;100.00;101681.03;10378558;28;20025;-73
2022/10/05 20:28:29;;;;;;;2.65;1.42;;;;;;;13.62;100.00;101675.91;10376427;28;20042;-74
2022/10/05 20:33:29;;;;;;;3.05;1.70;;;;;;;13.56;100.00;101690.34;10360664;28;20037;-72
2022/10/05 20:38:30;;;;;;;5.20;1.70;;;;;;;13.53;100.00;101684.44;10376510;28;20071;-73
2022/10/05 20:43:30;;;;;;;15.57;2.60;;;;;;;13.52;100.00;101688.22;10377733;28;20034;-72
2022/10/05 20:48:31;;;;;;;2.63;1.67;;;;;;;13.47;100.00;101686.09;10377464;28;20030;-74
2022/10/05 20:53:32;;;;;;;6.88;1.73;;;;;;;13.38;100.00;101706.31;10375325;28;20044;-74
2022/10/05 20:58:32;;;;;;;1.40;1.30;;;;;;;13.43;100.00;101717.44;10375662;28;20030;-74
2022/10/05 21:03:33;;;;;;;7.32;1.55;;;;;;;13.52;100.00;101726.31;10378120;28;20041;-73
2022/10/05 21:08:35;;;;;;;3.13;1.83;;;;;;;13.43;100.00;101733.75;10376530;28;20373;-74
2022/10/05 21:13:38;;;;;;;5.72;2.60;;;;;;;13.32;100.00;101740.56;10360962;28;20041;-73
2022/10/05 21:18:39;;;;;;;19.80;3.65;;;;;;;13.39;100.00;101754.25;10359077;28;20462;-72
2022/10/05 21:23:39;;;;;;;7.35;2.72;;;;;;;13.50;100.00;101770.06;10359226;28;20045;-70
2022/10/05 21:28:40;;;;;;;17.15;2.40;;;;;;;13.43;100.00;101778.16;10376680;28;20449;-70
2022/10/05 21:33:40;;;;;;;18.73;3.25;;;;;;;13.31;100.00;101796.03;10374605;28;20037;-69
2022/10/05 21:38:41;;;;;;;13.57;3.22;;;;;;;13.31;100.00;101816.94;10375024;28;20036;-69
2022/10/05 21:43:41;;;;;;;7.03;3.17;;;;;;;13.33;100.00;101820.31;10374253;28;20136;-69
2022/10/05 21:48:42;;;;;;;13.43;4.47;;;;;;;13.31;100.00;101825.94;10373660;28;20026;-69
2022/10/05 21:54:00;;;;;;;13.93;3.40;;;;;;;13.33;100.00;101839.34;10357678;28;20032;-69
2022/10/05 21:59:02;;;;;;;7.40;2.20;;;;;;;13.32;100.00;101840.38;10374393;28;20143;-69
2022/10/05 22:04:03;;;;;;;5.53;2.45;;;;;;;13.27;100.00;101849.09;10358030;28;20042;-68
2022/10/05 22:09:04;;;;;;;6.90;3.05;;;;;;;13.22;100.00;101859.72;10374783;28;20053;-69
2022/10/05 22:14:04;;;;;;;8.20;3.13;;;;;;;13.30;100.00;101858.78;10373514;28;20042;-68
2022/10/05 22:19:09;;;;;;;9.63;3.17;;;;;;;13.39;100.00;101860.34;10375125;28;20124;-69
2022/10/05 22:24:12;;;;;;;9.60;2.58;;;;;;;13.44;100.00;101876.94;10375172;28;20080;-69
2022/10/05 22:29:13;;;;;;;18.15;2.38;;;;;;;13.40;100.00;101891.94;10373726;28;20046;-70
2022/10/05 22:34:14;;;;;;;12.90;2.83;;;;;;;13.32;100.00;101898.34;10373109;28;20042;-70
2022/10/05 22:39:15;;;;;;;6.53;4.32;;;;;;;13.33;100.00;101912.78;10372983;28;20447;-70
2022/10/05 22:44:16;;;;;;;9.90;2.00;;;;;;;13.32;100.00;101914.69;10373305;28;20175;-70
2022/10/05 22:49:16;;;;;;;11.68;3.88;;;;;;;13.31;100.00;101914.88;10375142;28;20041;-70
2022/10/05 22:54:16;;;;;;;19.58;3.47;;;;;;;13.33;100.00;101932.69;10374588;28;20477;-69
2022/10/05 22:59:17;;;;;;;12.30;3.10;;;;;;;13.32;100.00;101938.31;10373831;28;20107;-70
2022/10/05 23:04:17;;;;;;;11.32;1.90;;;;;;;13.30;100.00;101940.38;10373891;28;20067;-69
2022/10/05 23:09:18;;;;;;;21.85;3.40;;;;;;;13.25;100.00;101960.00;10371582;28;20508;-69
2022/10/05 23:14:18;;;;;;;15.15;2.75;;;;;;;13.20;100.00;101965.13;10376816;28;20069;-69
2022/10/05 23:19:19;;;;;;;6.72;3.35;;;;;;;13.20;100.00;101959.69;10363337;28;20026;-68
2022/10/05 23:24:19;;;;;;;15.80;3.28;;;;;;;13.23;100.00;101986.50;10380855;28;20038;-69
2022/10/05 23:29:20;;;;;;;10.68;3.58;;;;;;;13.13;100.00;101997.66;10381696;28;20042;-69
2022/10/05 23:34:20;;;;;;;10.77;2.78;;;;;;;13.01;100.00;102008.16;10378984;28;20038;-69
2022/10/05 23:39:21;;;;;;;11.60;2.90;;;;;;;13.03;100.00;102022.44;10379497;28;20029;-69
2022/10/05 23:44:21;;;;;;;7.28;3.03;;;;;;;12.94;100.00;102028.13;10380606;28;20041;-68
2022/10/05 23:49:22;;;;;;;4.97;2.88;;;;;;;12.95;100.00;102040.69;10379825;28;20077;-69
2022/10/05 23:54:22;;;;;;;7.00;1.85;;;;;;;12.92;100.00;102055.53;10379673;28;20038;-69
2022/10/05 23:59:23;;;;;;;6.57;2.28;;;;;;;12.84;100.00;102063.75;10380360;28;20359;-68
